Time;durP1;ratioP1;P1;durP2;ratioP2;P2;SDS_P1;SDS_P2;PMS_P1;PMS_P2;Temp;Humidity;BMP_temperature;BMP_pressure;BME280_temperature;BME280_humidity;BME280_pressure;Samples;Min_cycle;Max_cycle;Signal;HPM_P1;HPM_P2
2022/05/16 00:02:09;;;;;;;3.60;3.30;;;20.10;68.40;;;20.81;nan;100462.53;5069376;28;20680;-69
2022/05/16 00:04:39;;;;;;;3.00;2.67;;;20.10;68.80;;;20.84;nan;100459.53;5072890;28;20631;-68
2022/05/16 00:07:06;;;;;;;3.27;2.87;;;20.10;69.10;;;20.75;nan;100468.56;5072350;28;20638;-68
2022/05/16 00:09:33;;;;;;;5.50;3.50;;;20.00;69.50;;;20.65;nan;100465.34;5073282;28;21059;-69
2022/05/16 00:12:01;;;;;;;3.63;3.17;;;19.90;70.20;;;20.59;nan;100456.28;5073550;28;20614;-68
2022/05/16 00:14:28;;;;;;;7.93;3.60;;;19.90;70.50;;;20.55;nan;100454.19;5073078;28;20622;-68
2022/05/16 00:16:55;;;;;;;4.37;3.73;;;19.80;71.10;;;20.50;nan;100453.88;5070864;28;20674;-68
2022/05/16 00:19:22;;;;;;;4.13;3.83;;;19.80;71.30;;;20.44;nan;100451.94;5072388;28;21226;-68
2022/05/16 00:21:48;;;;;;;4.40;4.00;;;19.70;71.50;;;20.53;nan;100450.88;5072329;28;20614;-68
2022/05/16 00:24:18;;;;;;;3.90;3.53;;;19.80;71.40;;;20.51;nan;100447.56;5073715;28;20614;-68
2022/05/16 00:26:45;;;;;;;4.40;3.57;;;19.80;71.60;;;20.53;nan;100449.03;5060842;28;20636;-65
2022/05/16 00:29:12;;;;;;;4.90;3.57;;;19.80;71.80;;;20.54;nan;100448.03;5052983;28;20647;-68
2022/05/16 00:31:39;;;;;;;3.53;3.23;;;19.80;71.90;;;20.56;nan;100450.50;5052686;28;21032;-66
2022/05/16 00:34:06;;;;;;;3.20;2.90;;;19.80;71.70;;;20.52;nan;100446.56;5059463;28;20631;-69
2022/05/16 00:36:33;;;;;;;4.77;3.83;;;19.80;72.00;;;20.47;nan;100447.09;5072266;28;20618;-69
2022/05/16 00:39:00;;;;;;;3.83;3.17;;;19.70;72.30;;;20.38;nan;100447.38;5071738;28;20701;-68
2022/05/16 00:41:27;;;;;;;3.93;3.63;;;19.70;72.90;;;20.41;nan;100434.56;5072294;28;20684;-68
2022/05/16 00:43:58;;;;;;;3.87;3.47;;;19.70;73.00;;;20.39;nan;100444.53;5073016;28;20630;-69
2022/05/16 00:46:32;;;;;;;6.37;3.77;;;19.70;73.10;;;20.36;nan;100438.78;5071561;28;20631;-68
2022/05/16 00:49:02;;;;;;;3.90;3.57;;;19.60;73.50;;;20.36;nan;100441.41;5071712;28;21019;-68
2022/05/16 00:51:40;;;;;;;3.97;3.50;;;19.70;73.70;;;20.34;nan;100448.69;5071950;28;20642;-68
2022/05/16 00:54:33;;;;;;;4.80;3.00;;;19.60;74.50;;;20.31;nan;100454.38;5053756;28;20635;-68
2022/05/16 00:57:12;;;;;;;4.03;3.57;;;19.60;74.40;;;20.33;nan;100449.72;5065052;28;20987;-68
2022/05/16 01:00:18;;;;;;;4.20;3.30;;;19.60;74.70;;;20.28;nan;100444.09;5059117;28;20654;-68
2022/05/16 01:05:53;;;;;;;3.87;3.57;;;19.50;75.90;;;20.23;nan;100436.69;5070148;28;20984;-67
2022/05/16 01:08:25;;;;;;;3.60;3.30;;;19.50;76.40;;;20.21;nan;100436.03;5069865;28;20662;-66
2022/05/16 01:10:56;;;;;;;3.40;3.10;;;19.50;77.00;;;20.23;nan;100434.03;5072184;28;20634;-69
2022/05/16 01:13:29;;;;;;;4.27;3.87;;;19.50;77.10;;;20.21;nan;100443.19;5054472;28;20607;-68
2022/05/16 01:15:57;;;;;;;5.50;3.33;;;19.50;77.40;;;20.23;nan;100439.34;5052796;28;20956;-68
2022/05/16 01:18:27;;;;;;;4.03;3.70;;;19.50;77.50;;;20.24;nan;100440.16;5052954;28;20729;-68
2022/05/16 01:21:26;;;;;;;3.80;3.50;;;19.50;77.20;;;20.28;nan;100441.47;5051389;28;20620;-69
2022/05/16 01:24:09;;;;;;;4.37;3.30;;;19.60;77.70;;;20.33;nan;100436.47;5036479;28;20635;-68
2022/05/16 01:26:37;;;;;;;7.63;3.50;;;19.60;77.80;;;20.37;nan;100443.06;5054085;28;20603;-68
2022/05/16 01:29:06;;;;;;;3.53;3.27;;;19.70;77.70;;;20.31;nan;100438.47;5071509;28;21093;-68
2022/05/16 01:31:34;;;;;;;4.10;3.60;;;19.60;78.30;;;20.21;nan;100435.25;5070146;28;20634;-68
2022/05/16 01:34:02;;;;;;;4.20;3.57;;;19.50;78.90;;;20.20;nan;100437.06;5071458;28;20637;-67
2022/05/16 01:36:29;;;;;;;4.03;3.67;;;19.50;79.30;;;20.20;nan;100433.53;5070900;28;20643;-69
2022/05/16 01:38:56;;;;;;;6.40;3.90;;;19.50;79.80;;;20.18;nan;100446.97;5052432;28;21230;-69
2022/05/16 01:41:26;;;;;;;6.33;4.33;;;19.50;79.40;;;20.18;nan;100446.13;5062220;28;21191;-66
2022/05/16 01:43:56;;;;;;;4.30;3.77;;;19.50;79.30;;;20.21;nan;100445.84;5051600;28;20624;-66
2022/05/16 01:46:32;;;;;;;6.13;3.40;;;19.50;79.70;;;20.25;nan;100439.19;5070893;28;21187;-68
2022/05/16 01:49:00;;;;;;;5.00;3.43;;;19.60;79.70;;;20.30;nan;100434.16;5052842;28;21019;-68
2022/05/16 01:51:27;;;;;;;4.20;3.80;;;19.60;79.70;;;20.33;nan;100436.47;5071517;28;20634;-68
2022/05/16 01:53:55;;;;;;;4.23;3.83;;;19.60;79.60;;;20.35;nan;100437.94;5069136;28;20634;-68
2022/05/16 01:56:22;;;;;;;3.50;3.30;;;19.70;79.60;;;20.35;nan;100437.09;5033764;28;21282;-68
2022/05/16 01:58:50;;;;;;;4.40;3.73;;;19.70;79.80;;;20.33;nan;100434.66;5051271;28;20679;-68
2022/05/16 02:01:17;;;;;;;6.10;3.53;;;19.70;79.90;;;20.37;nan;100448.34;5071487;28;20991;-68
2022/05/16 02:03:47;;;;;;;3.43;3.17;;;19.70;79.90;;;20.42;nan;100456.59;5070391;28;20603;-68
2022/05/16 02:06:14;;;;;;;3.63;3.20;;;19.70;79.50;;;20.40;nan;100450.66;5048987;28;20646;-69
2022/05/16 02:08:43;;;;;;;4.10;3.50;;;19.70;80.00;;;20.37;nan;100448.34;5051791;28;20663;-68
2022/05/16 02:11:10;;;;;;;5.03;3.40;;;19.70;80.40;;;20.28;nan;100436.16;5062045;28;20661;-70
2022/05/16 02:13:40;;;;;;;3.83;3.53;;;19.60;80.80;;;20.21;nan;100427.28;5051074;28;20639;-68
2022/05/16 02:16:08;;;;;;;4.27;3.70;;;19.50;81.10;;;20.16;nan;100419.84;5051912;28;20622;-68
2022/05/16 02:18:36;;;;;;;5.53;3.87;;;19.50;81.20;;;20.17;nan;100431.25;5069597;28;20697;-66
2022/05/16 02:26:37;;;;;;;3.60;3.40;;;19.30;81.90;;;19.99;nan;100431.53;5069142;28;20635;-68
2022/05/16 02:29:04;;;;;;;3.60;3.30;;;19.30;82.50;;;19.90;nan;100430.78;5069796;28;20667;-68
2022/05/16 02:31:31;;;;;;;4.20;3.40;;;19.20;83.30;;;19.90;nan;100435.22;5069933;28;21190;-67
2022/05/16 02:33:58;;;;;;;6.17;3.40;;;19.20;83.40;;;19.91;nan;100434.25;5060574;28;20666;-67
2022/05/16 02:36:25;;;;;;;5.90;3.77;;;19.20;83.40;;;19.86;nan;100437.41;5050667;28;20650;-68
2022/05/16 02:38:53;;;;;;;3.13;2.93;;;19.20;83.80;;;19.86;nan;100457.75;5056069;28;20674;-67
2022/05/16 02:41:20;;;;;;;8.90;4.10;;;19.20;84.10;;;19.78;nan;100455.16;5070040;28;20757;-67
2022/05/16 02:43:47;;;;;;;4.20;3.80;;;19.10;84.80;;;19.73;nan;100463.63;5068719;28;21219;-67
2022/05/16 02:46:14;;;;;;;3.37;3.17;;;19.00;85.60;;;19.76;nan;100454.53;5069166;28;20649;-67
2022/05/16 02:48:41;;;;;;;4.17;3.80;;;19.10;86.00;;;19.73;nan;100445.09;5069504;28;21257;-68
2022/05/16 02:51:08;;;;;;;5.10;3.87;;;19.00;86.80;;;19.68;nan;100447.44;5070139;28;20631;-67
2022/05/16 02:53:35;;;;;;;3.80;3.37;;;19.00;86.80;;;19.56;nan;100450.63;5070168;28;21213;-67
2022/05/16 02:56:02;;;;;;;4.23;3.93;;;18.90;87.60;;;19.48;nan;100451.50;5068583;28;20642;-67
2022/05/16 02:58:29;;;;;;;4.13;3.80;;;18.80;88.60;;;19.43;nan;100455.63;5069920;28;20712;-68
2022/05/16 03:00:56;;;;;;;4.17;3.80;;;18.80;89.10;;;19.30;nan;100456.16;5069546;28;20642;-67
2022/05/16 03:03:23;;;;;;;4.23;3.80;;;18.60;90.00;;;19.26;nan;100457.50;5070146;28;20619;-69
2022/05/16 03:05:50;;;;;;;5.00;3.80;;;18.60;90.20;;;19.20;nan;100461.66;5067428;28;20646;-67
2022/05/16 03:08:17;;;;;;;5.30;3.70;;;18.50;90.70;;;19.20;nan;100458.19;5067868;28;21064;-68
2022/05/16 03:10:44;;;;;;;4.67;3.87;;;18.50;90.90;;;19.20;nan;100466.94;5069013;28;21257;-67
2022/05/16 03:13:11;;;;;;;3.77;3.57;;;18.50;90.90;;;19.23;nan;100466.59;5065578;28;20645;-69
2022/05/16 03:15:38;;;;;;;3.63;3.33;;;18.60;91.30;;;19.30;nan;100464.09;5069227;28;21005;-67
2022/05/16 03:18:05;;;;;;;4.23;3.83;;;18.60;91.30;;;19.30;nan;100466.72;5069158;28;20674;-68
2022/05/16 03:20:32;;;;;;;5.47;4.10;;;18.60;91.40;;;19.29;nan;100468.53;5069015;28;20634;-67
2022/05/16 03:22:59;;;;;;;4.27;3.87;;;18.60;91.50;;;19.24;nan;100473.53;5068537;28;20639;-68
2022/05/16 03:25:26;;;;;;;6.17;3.60;;;18.60;91.80;;;19.30;nan;100464.09;5068058;28;20634;-67
2022/05/16 03:27:53;;;;;;;5.80;3.83;;;18.60;92.10;;;19.27;nan;100462.59;5068900;28;20647;-68
2022/05/16 03:30:20;;;;;;;4.00;3.70;;;18.60;92.30;;;19.25;nan;100459.31;5068597;28;20646;-67
2022/05/16 03:32:48;;;;;;;4.37;3.97;;;18.60;92.70;;;19.21;nan;100463.28;5052187;28;20635;-67
2022/05/16 03:35:15;;;;;;;4.60;3.90;;;18.60;92.90;;;19.28;nan;100452.84;5068648;28;20622;-67
2022/05/16 03:37:42;;;;;;;4.27;3.87;;;18.60;92.70;;;19.31;nan;100453.31;5069986;28;20643;-68
2022/05/16 03:42:56;;;;;;;4.27;3.50;;;18.60;93.10;;;19.29;nan;100459.81;5066222;28;20657;-67
2022/05/16 03:45:24;;;;;;;4.13;3.20;;;18.60;93.40;;;19.26;nan;100447.75;5056065;28;20622;-67
2022/05/16 03:47:51;;;;;;;3.07;2.87;;;18.60;93.80;;;19.24;nan;100447.09;5071621;28;20634;-67
2022/05/16 03:50:18;;;;;;;4.23;3.80;;;18.60;93.90;;;19.19;nan;100443.28;5055231;28;20614;-67
2022/05/16 03:52:46;;;;;;;4.40;4.00;;;18.50;94.30;;;19.14;nan;100456.22;5069737;28;20638;-65
2022/05/16 03:55:15;;;;;;;5.00;3.53;;;18.50;94.90;;;19.19;nan;100459.16;5072474;28;20630;-67
2022/05/16 03:57:43;;;;;;;4.07;3.70;;;18.50;95.10;;;19.07;nan;100463.16;5054237;28;20713;-67
2022/05/16 04:00:15;;;;;;;5.57;4.70;;;18.40;95.60;;;19.08;nan;100465.63;5072241;28;20626;-67
2022/05/16 04:02:43;;;;;;;5.93;4.50;;;18.40;95.80;;;19.04;nan;100471.41;5072813;28;20630;-67
2022/05/16 04:05:15;;;;;;;5.30;4.73;;;18.40;96.10;;;19.01;nan;100469.13;5072160;28;20625;-65
2022/05/16 04:07:42;;;;;;;4.23;3.80;;;18.40;96.40;;;19.07;nan;100461.34;5071820;28;20660;-69
2022/05/16 04:10:10;;;;;;;5.03;4.07;;;18.40;96.70;;;19.11;nan;100467.13;5070825;28;20649;-68
2022/05/16 04:12:37;;;;;;;6.37;4.30;;;18.50;96.40;;;19.17;nan;100467.28;5070353;28;21202;-66
2022/05/16 04:15:06;;;;;;;4.83;4.40;;;18.50;96.50;;;19.14;nan;100474.72;5053414;28;20615;-66
2022/05/16 04:17:34;;;;;;;5.10;4.00;;;18.50;96.90;;;19.18;nan;100473.38;5073452;28;20999;-64
2022/05/16 04:20:01;;;;;;;9.07;4.30;;;18.50;97.20;;;19.21;nan;100470.38;5072729;28;20669;-67
2022/05/16 04:22:30;;;;;;;5.27;4.10;;;18.60;97.30;;;19.25;nan;100477.03;5062270;28;20699;-67
2022/05/16 04:24:57;;;;;;;6.20;3.90;;;18.60;97.40;;;19.31;nan;100479.78;5060059;28;21016;-67
2022/05/16 04:27:24;;;;;;;4.87;4.37;;;18.70;97.50;;;19.41;nan;100477.00;5071801;28;20631;-67
2022/05/16 04:29:51;;;;;;;5.83;3.90;;;18.80;97.10;;;19.56;nan;100471.81;5072030;28;20662;-67
2022/05/16 04:32:18;;;;;;;4.63;4.20;;;18.90;96.80;;;19.73;nan;100478.69;5072507;28;20622;-68
2022/05/16 04:34:45;;;;;;;5.53;4.90;;;19.10;96.60;;;19.96;nan;100475.09;5071565;28;20630;-68
2022/05/16 04:37:12;;;;;;;7.40;4.30;;;19.40;96.40;;;20.25;nan;100492.16;5072522;28;20645;-67
2022/05/16 04:39:39;;;;;;;7.80;4.43;;;19.70;96.20;;;20.49;nan;100479.56;5070900;28;20697;-68
2022/05/16 04:44:53;;;;;;;6.40;4.40;;;20.00;94.70;;;20.85;nan;100487.69;5071696;28;20996;-68
2022/05/16 04:47:20;;;;;;;5.07;4.50;;;20.30;94.30;;;21.12;nan;100487.16;5072770;28;20655;-69
2022/05/16 04:49:48;;;;;;;8.63;4.17;;;20.60;93.80;;;21.33;nan;100484.59;5070395;28;20662;-69
2022/05/16 04:52:15;;;;;;;7.00;4.80;;;20.80;93.20;;;21.45;nan;100483.13;5071694;28;20631;-69
2022/05/16 04:54:42;;;;;;;4.93;4.03;;;20.90;92.70;;;21.44;nan;100489.47;5071272;28;20635;-68
2022/05/16 04:57:09;;;;;;;4.50;4.10;;;20.90;92.50;;;21.45;nan;100496.41;5071760;28;20634;-68
2022/05/16 04:59:37;;;;;;;6.87;4.40;;;20.90;92.60;;;21.47;nan;100498.84;5071278;28;20677;-65
2022/05/16 05:02:04;;;;;;;5.30;4.37;;;20.90;92.70;;;21.66;nan;100502.81;5071972;28;20634;-69
2022/05/16 05:04:31;;;;;;;4.50;4.10;;;21.10;92.70;;;21.80;nan;100510.75;5070507;28;20649;-68
2022/05/16 05:06:58;;;;;;;5.90;3.93;;;21.20;92.20;;;21.79;nan;100505.59;5071759;28;20626;-68
2022/05/16 05:09:25;;;;;;;5.67;4.00;;;21.20;92.10;;;21.74;nan;100502.69;5070326;28;20677;-68
2022/05/16 05:14:41;;;;;;;5.10;4.33;;;21.10;92.30;;;21.64;nan;100495.00;5072586;28;20626;-68
2022/05/16 05:17:11;;;;;;;6.00;4.80;;;21.00;92.40;;;21.55;nan;100496.13;5072884;28;20613;-69
2022/05/16 05:19:40;;;;;;;6.17;4.80;;;20.90;92.50;;;21.53;nan;100495.47;5054908;28;20674;-68
2022/05/16 05:22:07;;;;;;;7.13;4.40;;;20.90;92.80;;;21.54;nan;100502.44;5072015;28;20607;-68
2022/05/16 05:24:34;;;;;;;10.50;4.93;;;20.90;92.80;;;21.50;nan;100499.34;5067468;28;20636;-69
2022/05/16 05:27:02;;;;;;;4.53;4.10;;;20.90;93.30;;;21.42;nan;100506.56;5051278;28;20979;-68
2022/05/16 05:29:29;;;;;;;10.13;5.00;;;20.80;93.10;;;21.30;nan;100515.97;5064287;28;20670;-68
2022/05/16 05:31:56;;;;;;;5.77;4.07;;;20.60;93.20;;;21.25;nan;100513.84;5063488;28;20622;-69
2022/05/16 05:34:23;;;;;;;8.30;4.70;;;20.60;93.50;;;21.24;nan;100525.50;5063301;28;20634;-66
2022/05/16 05:36:50;;;;;;;7.47;4.40;;;20.60;93.10;;;21.30;nan;100521.28;5072298;28;21031;-68
2022/05/16 05:39:18;;;;;;;4.43;4.03;;;20.60;93.20;;;21.31;nan;100522.94;5070093;28;20792;-69
2022/05/16 05:41:45;;;;;;;4.50;3.97;;;20.70;93.00;;;21.37;nan;100523.03;5060148;28;20642;-68
2022/05/16 05:44:12;;;;;;;4.00;3.63;;;20.70;92.50;;;21.39;nan;100531.63;5070209;28;20631;-69
2022/05/16 05:46:41;;;;;;;7.90;4.33;;;20.70;91.90;;;21.42;nan;100536.56;5069702;28;20631;-69
2022/05/16 05:49:12;;;;;;;11.53;4.13;;;20.80;91.80;;;21.43;nan;100532.91;5052734;28;20655;-67
2022/05/16 05:51:39;;;;;;;6.17;3.83;;;20.80;91.80;;;21.47;nan;100534.19;5070098;28;20622;-67
2022/05/16 05:54:07;;;;;;;7.30;4.10;;;20.80;92.40;;;21.45;nan;100528.25;5071810;28;20998;-69
2022/05/16 05:56:34;;;;;;;4.97;3.60;;;20.80;93.10;;;21.49;nan;100537.50;5069542;28;20650;-68
2022/05/16 05:59:02;;;;;;;5.13;3.60;;;20.80;93.20;;;21.43;nan;100530.25;5071332;28;20666;-70
2022/05/16 06:01:31;;;;;;;9.10;4.13;;;20.80;93.40;;;21.20;nan;100534.00;5068821;28;20641;-68
2022/05/16 06:03:59;;;;;;;6.37;3.90;;;20.50;93.80;;;21.21;nan;100541.75;5069285;28;21004;-68
2022/05/16 06:06:26;;;;;;;5.10;3.80;;;20.50;94.20;;;21.38;nan;100543.25;5069509;28;20623;-69
2022/05/16 06:08:53;;;;;;;4.27;3.73;;;20.70;94.40;;;21.56;nan;100553.50;5069831;28;20650;-69
2022/05/16 06:11:21;;;;;;;4.57;3.63;;;20.90;94.20;;;21.80;nan;100555.06;5069185;28;20634;-68
2022/05/16 06:13:48;;;;;;;4.07;3.77;;;21.20;94.10;;;21.98;nan;100553.69;5070212;28;20638;-68
2022/05/16 06:16:15;;;;;;;3.77;3.23;;;21.40;93.80;;;22.13;nan;100562.47;5070149;28;20642;-68
2022/05/16 06:18:45;;;;;;;6.10;4.10;;;21.60;93.50;;;22.09;nan;100565.69;5069478;28;20677;-68
2022/05/16 06:21:12;;;;;;;7.60;4.30;;;21.50;93.20;;;22.18;nan;100564.56;5035242;28;20631;-68
2022/05/16 06:23:39;;;;;;;5.20;4.00;;;21.60;93.00;;;22.16;nan;100570.09;5069809;28;20630;-67
2022/05/16 06:26:07;;;;;;;4.40;3.30;;;21.60;93.30;;;22.24;nan;100569.97;5070668;28;20621;-69
2022/05/16 06:28:37;;;;;;;4.90;4.30;;;21.60;93.30;;;22.20;nan;100573.19;5069630;28;20673;-70
2022/05/16 06:31:05;;;;;;;5.47;4.10;;;21.70;93.20;;;22.45;nan;100565.69;5069717;28;20631;-68
2022/05/16 06:33:33;;;;;;;5.40;4.57;;;21.80;93.30;;;22.69;nan;100566.19;5069931;28;20975;-68
2022/05/16 06:36:01;;;;;;;6.87;3.73;;;22.10;93.00;;;22.79;nan;100574.66;5067811;28;21062;-70
2022/05/16 06:38:32;;;;;;;5.37;3.77;;;22.30;92.70;;;22.62;nan;100585.72;5069299;28;21250;-70
2022/05/16 06:41:00;;;;;;;4.90;4.30;;;22.10;93.30;;;22.37;nan;100583.41;5052822;28;20638;-68
2022/05/16 06:43:29;;;;;;;6.00;4.13;;;21.80;93.80;;;22.26;nan;100591.88;5052163;28;21233;-69
2022/05/16 06:45:57;;;;;;;4.70;4.27;;;21.60;94.50;;;22.14;nan;100585.38;5067335;28;20627;-69
2022/05/16 06:48:24;;;;;;;7.00;3.80;;;21.50;94.90;;;22.11;nan;100593.72;5069817;28;20659;-68
2022/05/16 06:50:52;;;;;;;4.00;3.70;;;21.50;95.00;;;21.94;nan;100586.97;5068249;28;20785;-69
2022/05/16 06:53:27;;;;;;;8.90;4.37;;;21.30;94.90;;;21.72;nan;100579.06;5067848;28;20688;-69
2022/05/16 06:55:56;;;;;;;4.67;3.50;;;21.00;94.70;;;21.66;nan;100590.44;5066397;28;21201;-69
2022/05/16 06:58:24;;;;;;;6.43;3.70;;;21.00;94.90;;;21.49;nan;100587.94;5051847;28;21262;-69
2022/05/16 07:00:51;;;;;;;4.13;3.80;;;20.80;95.10;;;21.52;nan;100581.44;5052022;28;21067;-68
2022/05/16 07:03:18;;;;;;;7.73;3.90;;;20.80;94.90;;;21.50;nan;100591.41;5069210;28;21179;-68
2022/05/16 07:05:50;;;;;;;3.73;3.43;;;20.90;94.90;;;21.82;nan;100582.25;5068519;28;20634;-65
2022/05/16 07:08:19;;;;;;;4.00;3.70;;;21.20;94.80;;;22.19;nan;100590.16;5069725;28;20657;-68
2022/05/16 07:10:48;;;;;;;4.90;4.30;;;21.60;94.30;;;22.46;nan;100600.06;5067898;28;20780;-69
2022/05/16 07:13:21;;;;;;;3.67;3.37;;;21.90;93.80;;;22.70;nan;100601.59;5068836;28;20619;-68
2022/05/16 07:15:48;;;;;;;7.00;3.80;;;22.10;93.20;;;22.64;nan;100594.34;5067329;28;20638;-68
2022/05/16 07:18:15;;;;;;;5.00;4.10;;;22.10;93.10;;;23.51;nan;100593.91;5050350;28;20659;-69
2022/05/16 07:20:42;;;;;;;5.07;4.00;;;22.90;92.20;;;23.69;nan;100591.59;5066659;28;20674;-69
2022/05/16 07:23:10;;;;;;;4.97;3.40;;;23.30;90.90;;;23.72;nan;100595.69;5053624;28;20619;-69
2022/05/16 07:28:23;;;;;;;4.80;3.70;;;22.90;91.00;;;23.85;nan;100591.25;5069904;28;20650;-68
2022/05/16 07:30:51;;;;;;;6.60;3.63;;;23.20;91.00;;;25.52;nan;100598.44;5068704;28;20702;-69
2022/05/16 07:33:20;;;;;;;6.30;3.63;;;25.00;87.50;;;28.02;nan;100596.69;5067344;28;20629;-69
2022/05/16 07:35:50;;;;;;;6.27;3.53;;;27.50;80.10;;;29.52;nan;100593.66;5057660;28;20691;-67
2022/05/16 07:38:20;;;;;;;4.13;3.73;;;29.80;69.40;;;31.30;nan;100597.69;5059827;28;20719;-69
2022/05/16 07:40:47;;;;;;;4.93;3.87;;;31.10;64.40;;;33.41;nan;100604.72;5062954;28;20666;-68
2022/05/16 07:43:14;;;;;;;6.30;4.37;;;33.20;59.30;;;33.96;nan;100607.78;5069129;28;21001;-69
2022/05/16 07:45:42;;;;;;;5.83;4.00;;;33.80;55.20;;;35.08;nan;100612.41;5067784;28;20638;-71
2022/05/16 07:48:09;;;;;;;4.90;3.80;;;35.00;52.90;;;35.52;nan;100610.75;5052174;28;20772;-70
2022/05/16 07:50:37;;;;;;;6.30;3.87;;;35.40;51.00;;;34.31;nan;100604.38;5068230;28;20627;-69
2022/05/16 07:53:11;;;;;;;4.87;3.53;;;33.80;52.30;;;33.29;nan;100610.31;5069307;28;20631;-70
2022/05/16 07:55:41;;;;;;;5.03;3.93;;;32.80;53.40;;;32.81;nan;100611.25;5068509;28;20644;-69
2022/05/16 07:58:09;;;;;;;7.97;3.60;;;32.20;54.60;;;34.06;nan;100617.84;5068683;28;20665;-70
2022/05/16 08:00:36;;;;;;;3.83;3.63;;;33.40;54.00;;;35.42;nan;100624.31;5048754;28;21038;-71
2022/05/16 08:03:04;;;;;;;4.30;3.90;;;34.90;52.20;;;36.40;nan;100613.69;5069448;28;20615;-67
2022/05/16 08:05:33;;;;;;;6.47;3.90;;;36.00;50.60;;;37.01;nan;100617.69;5067247;28;20633;-70
2022/05/16 08:10:49;;;;;;;3.63;3.33;;;37.40;48.00;;;38.76;nan;100624.13;4974849;28;20651;-67
2022/05/16 08:13:16;;;;;;;6.27;3.80;;;38.30;46.90;;;;;;4968964;28;20933;-66
2022/05/16 08:15:43;;;;;;;7.10;4.40;;;39.10;45.80;;;41.04;nan;100621.19;4970970;28;20726;-67
2022/05/16 08:18:12;;;;;;;9.57;4.50;;;40.80;44.70;;;42.28;nan;100623.50;4975599;28;20631;-67
2022/05/16 08:20:43;;;;;;;7.27;4.20;;;42.00;42.50;;;42.05;nan;100622.81;4952066;28;20675;-67
2022/05/16 08:23:14;;;;;;;4.73;4.10;;;41.90;41.70;;;42.36;nan;100623.50;4953807;28;20615;-65
2022/05/16 08:26:01;;;;;;;3.60;3.40;;;42.30;41.10;;;43.39;nan;100630.88;4964226;28;20677;-66
2022/05/16 08:28:28;;;;;;;4.63;3.47;;;43.00;40.50;;;43.81;nan;100624.41;4976420;28;20636;-66
2022/05/16 08:30:55;;;;;;;5.27;3.67;;;43.40;39.70;;;43.73;nan;100625.25;4959667;29;20709;-66
2022/05/16 08:33:23;;;;;;;5.83;3.40;;;43.90;38.60;;;41.74;nan;100619.34;4957132;28;20628;-66
2022/05/16 08:41:54;;;;;;;10.57;3.30;;;42.50;39.40;;;42.71;nan;100634.50;4952223;29;21219;-66
2022/05/16 08:44:35;;;;;;;4.13;3.70;;;43.10;38.60;;;44.11;nan;100636.22;4960509;28;20634;-64
2022/05/16 08:47:45;;;;;;;6.30;4.20;;;43.70;38.50;;;42.49;nan;100626.47;4961247;29;20636;-66
2022/05/16 08:50:18;;;;;;;5.90;3.40;;;42.70;38.30;;;42.79;nan;100629.00;4952602;28;20675;-66
2022/05/16 08:53:03;;;;;;;3.90;3.50;;;42.50;38.80;;;44.74;nan;100640.59;4953069;29;20687;-66
2022/05/16 08:55:51;;;;;;;4.73;3.63;;;44.30;38.20;;;45.47;nan;100639.72;4952211;29;21236;-67
2022/05/16 08:58:29;;;;;;;3.60;3.30;;;45.20;37.50;;;47.06;nan;100642.69;4953302;28;20628;-66
2022/05/16 09:01:09;;;;;;;6.90;4.50;;;46.60;36.90;;;47.81;nan;100632.41;4952376;29;20671;-66
2022/05/16 09:04:04;;;;;;;6.43;3.97;;;47.70;36.10;;;48.36;nan;100636.81;4972235;28;20716;-66
2022/05/16 09:07:02;;;;;;;8.07;4.30;;;48.10;36.60;;;49.52;nan;100627.22;4975000;28;20631;-67
2022/05/16 09:09:56;;;;;;;3.93;3.70;;;49.10;35.10;;;50.36;nan;100624.88;4961566;28;20702;-66
2022/05/16 09:12:54;;;;;;;3.83;3.60;;;50.20;34.60;;;49.11;nan;100620.53;4959713;28;20655;-66
2022/05/16 09:16:02;;;;;;;7.10;3.80;;;49.70;34.20;;;47.82;nan;100625.69;4965437;29;21056;-65
2022/05/16 09:19:00;;;;;;;7.07;5.00;;;47.80;34.70;;;48.66;nan;100628.75;4965155;28;20738;-66
2022/05/16 09:21:58;;;;;;;4.10;3.80;;;48.00;35.10;;;49.07;nan;100618.88;4965747;29;20678;-66
2022/05/16 09:24:35;;;;;;;4.20;3.93;;;48.60;34.80;;;48.66;nan;100635.09;4953055;29;20639;-67
2022/05/16 09:27:09;;;;;;;4.10;3.90;;;48.40;34.70;;;49.31;nan;100626.81;4954455;29;20643;-66
2022/05/16 09:29:42;;;;;;;5.03;3.80;;;48.90;34.80;;;49.12;nan;100619.34;4951608;28;20755;-66
2022/05/16 09:32:22;;;;;;;4.47;4.00;;;48.70;34.50;;;47.31;nan;100629.50;4971995;28;20647;-65
2022/05/16 09:34:49;;;;;;;4.60;4.20;;;47.00;35.10;;;47.58;nan;100627.84;4962924;28;20659;-64
2022/05/16 09:37:16;;;;;;;4.13;3.83;;;46.90;34.90;;;47.92;nan;100629.88;4939668;28;20701;-66
2022/05/16 09:39:45;;;;;;;3.57;3.37;;;47.90;34.80;;;48.57;nan;100628.16;4950420;28;21045;-67
2022/05/16 09:42:32;;;;;;;4.50;4.30;;;48.30;34.80;;;47.05;nan;100629.25;4952168;28;21017;-69
2022/05/16 09:45:17;;;;;;;5.53;3.53;;;47.80;34.40;;;47.28;nan;100627.47;4952645;28;20652;-66
2022/05/16 09:47:44;;;;;;;8.40;4.37;;;47.00;34.90;;;46.68;nan;100636.88;4936890;28;20635;-66
2022/05/16 09:50:20;;;;;;;4.10;3.67;;;46.30;35.40;;;46.74;nan;100635.47;4955832;28;21080;-66
2022/05/16 09:53:09;;;;;;;4.13;3.83;;;46.70;35.10;;;48.23;nan;100638.09;4949828;28;21213;-66
2022/05/16 09:55:53;;;;;;;3.53;3.30;;;47.60;35.00;;;49.19;nan;100647.22;4952747;28;20651;-66
2022/05/16 09:58:34;;;;;;;5.60;4.10;;;48.90;34.10;;;49.20;nan;100642.50;4937250;28;21009;-66
2022/05/16 10:01:06;;;;;;;4.40;4.10;;;49.00;34.20;;;47.83;nan;100635.59;4948494;28;20679;-67
2022/05/16 10:03:43;;;;;;;6.90;3.97;;;47.60;34.60;;;45.81;nan;100635.72;4938946;29;21190;-67
2022/05/16 10:06:36;;;;;;;8.90;4.60;;;46.10;35.20;;;42.95;nan;100632.09;4958989;28;20644;-66
2022/05/16 10:09:16;;;;;;;4.13;3.90;;;42.60;37.10;;;41.62;nan;100630.03;4956378;28;20667;-66
2022/05/16 10:11:50;;;;;;;5.53;3.80;;;40.80;38.80;;;41.99;nan;100635.03;4940141;28;20651;-66
2022/05/16 10:14:18;;;;;;;4.20;3.80;;;41.20;39.30;;;42.17;nan;100639.44;4953869;28;20644;-68
2022/05/16 10:16:50;;;;;;;4.70;3.43;;;41.60;38.80;;;40.47;nan;100636.47;4953495;28;20640;-65
2022/05/16 10:19:27;;;;;;;4.60;3.30;;;39.90;39.60;;;38.62;nan;100643.09;4951928;28;20660;-66
2022/05/16 10:22:14;;;;;;;4.20;3.63;;;38.00;41.10;;;36.73;nan;100631.19;4956528;28;21225;-64
2022/05/16 10:24:52;;;;;;;4.60;4.20;;;36.00;42.90;;;35.34;nan;100641.16;4954933;28;20632;-66
2022/05/16 10:27:29;;;;;;;3.90;3.60;;;34.50;44.50;;;34.39;nan;100637.19;4953590;28;20643;-65
2022/05/16 10:30:02;;;;;;;3.53;3.23;;;33.50;45.90;;;33.02;nan;100646.59;4960122;28;20671;-65
2022/05/16 10:35:34;;;;;;;8.00;3.53;;;31.40;49.30;;;31.74;nan;100650.69;4950352;29;21355;-65
2022/05/16 10:38:13;;;;;;;4.47;3.77;;;30.80;50.60;;;31.36;nan;100648.75;4967205;28;20643;-66
2022/05/16 10:40:49;;;;;;;9.27;4.33;;;30.50;51.30;;;31.21;nan;100647.69;4962181;28;21236;-66
2022/05/16 10:43:49;;;;;;;8.63;3.73;;;30.40;51.70;;;31.31;nan;100643.28;4953469;29;20620;-66
2022/05/16 10:46:26;;;;;;;5.40;4.27;;;30.50;51.90;;;31.73;nan;100642.84;4950458;28;20646;-66
2022/05/16 10:49:10;;;;;;;4.40;3.90;;;30.80;51.70;;;32.04;nan;100644.91;4959217;28;20723;-65
2022/05/16 10:52:00;;;;;;;4.50;3.97;;;31.20;51.30;;;32.34;nan;100652.56;4951700;28;20644;-65
2022/05/16 10:54:32;;;;;;;8.17;3.60;;;31.50;50.70;;;32.23;nan;100656.22;4950874;29;21010;-66
2022/05/16 10:57:24;;;;;;;6.93;3.73;;;31.50;50.50;;;32.30;nan;100657.69;4949022;28;20649;-66
2022/05/16 11:00:09;;;;;;;4.20;3.70;;;31.70;50.70;;;32.31;nan;100659.28;4952395;28;20735;-65
2022/05/16 11:03:12;;;;;;;5.83;3.70;;;31.60;50.90;;;32.39;nan;100666.94;4953451;29;20629;-66
2022/05/16 11:06:23;;;;;;;4.00;3.67;;;31.60;50.70;;;32.31;nan;100661.19;4953521;29;20691;-65
2022/05/16 11:09:16;;;;;;;4.30;3.20;;;31.60;50.60;;;31.80;nan;100663.19;4943831;28;20668;-64
2022/05/16 11:11:52;;;;;;;7.43;3.93;;;31.10;50.70;;;31.73;nan;100667.94;4936611;29;21174;-66
2022/05/16 11:14:50;;;;;;;6.60;3.30;;;31.00;51.30;;;31.54;nan;100663.06;4952516;29;20643;-67
2022/05/16 11:17:42;;;;;;;3.80;3.37;;;30.80;51.60;;;31.11;nan;100664.50;4953170;29;20632;-67